Time;durP1;ratioP1;P1;durP2;ratioP2;P2;SDS_P1;SDS_P2;PMS_P1;PMS_P2;Temp;Humidity;BMP_temperature;BMP_pressure;BME280_temperature;BME280_humidity;BME280_pressure;Samples;Min_cycle;Max_cycle;Signal;HPM_P1;HPM_P2
2020/12/09 00:00:17;;;;;;;21.87;13.07;;;;;;;;;;5023884;28;20587;-74
2020/12/09 00:03:21;;;;;;;24.20;12.50;;;;;;;;;;5024140;28;20547;-74
2020/12/09 00:06:33;;;;;;;19.93;12.73;;;;;;;;;;5036100;28;20630;-74
2020/12/09 00:09:36;;;;;;;22.03;12.63;;;;;;;;;;5035338;28;20554;-74
2020/12/09 00:12:41;;;;;;;23.57;13.27;;;;;;;;;;5036175;28;20540;-74
2020/12/09 00:15:45;;;;;;;19.73;11.80;;;;;;;;;;5001085;28;20598;-73
2020/12/09 00:18:49;;;;;;;23.67;14.23;;;;;;;;;;5023497;28;20639;-74
2020/12/09 00:21:53;;;;;;;24.90;13.60;;;;;;;;;;5023777;28;20607;-74
2020/12/09 00:24:57;;;;;;;23.33;13.50;;;;;;;;;;5023645;28;20912;-74
2020/12/09 00:28:02;;;;;;;23.43;14.27;;;;;;;;;;5012481;28;20548;-74
2020/12/09 00:31:06;;;;;;;20.50;12.67;;;;;;;;;;5035761;28;20582;-74
2020/12/09 00:34:10;;;;;;;21.40;13.40;;;;;;;;;;5035795;28;20880;-74
2020/12/09 00:37:14;;;;;;;28.07;14.70;;;;;;;;;;5011582;28;21218;-74
2020/12/09 00:40:18;;;;;;;24.07;14.53;;;;;;;;;;5011982;28;20599;-74
2020/12/09 00:43:22;;;;;;;24.77;14.03;;;;;;;;;;5035606;28;20544;-75
2020/12/09 00:46:28;;;;;;;24.00;13.73;;;;;;;;;;5035158;28;20634;-74
2020/12/09 00:53:02;;;;;;;27.67;15.43;;;;;;;;;;5023275;28;20556;-74
2020/12/09 00:56:08;;;;;;;28.37;15.73;;;;;;;;;;5023008;28;21181;-74
2020/12/09 00:59:13;;;;;;;26.07;15.73;;;;;;;;;;5000384;28;20604;-74
2020/12/09 01:02:18;;;;;;;30.30;14.83;;;;;;;;;;5022969;28;20556;-74
2020/12/09 01:05:23;;;;;;;26.97;15.73;;;;;;;;;;5023023;28;20547;-75
2020/12/09 01:08:28;;;;;;;28.80;16.13;;;;;;;;;;5022811;28;20560;-74
2020/12/09 01:11:32;;;;;;;30.60;17.10;;;;;;;;;;5034790;28;20603;-74
2020/12/09 01:14:36;;;;;;;29.10;16.67;;;;;;;;;;5035011;28;20550;-74
2020/12/09 01:17:40;;;;;;;30.47;16.37;;;;;;;;;;5022456;28;20615;-74
2020/12/09 01:20:45;;;;;;;31.70;17.70;;;;;;;;;;5022620;28;20647;-74
2020/12/09 01:23:48;;;;;;;30.37;16.63;;;;;;;;;;5022569;28;20599;-74
2020/12/09 01:26:53;;;;;;;30.37;18.27;;;;;;;;;;5022231;28;20623;-74
2020/12/09 01:29:57;;;;;;;31.07;17.70;;;;;;;;;;5022550;28;20540;-74
2020/12/09 01:33:01;;;;;;;31.37;17.17;;;;;;;;;;5034367;28;20548;-74
2020/12/09 01:36:05;;;;;;;38.30;18.20;;;;;;;;;;5034635;28;20962;-74
2020/12/09 01:39:09;;;;;;;33.53;18.47;;;;;;;;;;5034091;28;20639;-74
2020/12/09 01:42:14;;;;;;;37.60;20.00;;;;;;;;;;5011077;28;20557;-74
2020/12/09 01:45:18;;;;;;;37.90;19.00;;;;;;;;;;5010843;28;20618;-74
2020/12/09 01:48:22;;;;;;;35.37;19.47;;;;;;;;;;5010934;28;20544;-74
2020/12/09 01:51:28;;;;;;;34.53;18.43;;;;;;;;;;5021991;28;20540;-74
2020/12/09 01:54:32;;;;;;;38.07;19.73;;;;;;;;;;5034220;28;20540;-74
2020/12/09 01:57:37;;;;;;;32.93;19.60;;;;;;;;;;5021666;28;20631;-74
2020/12/09 02:00:42;;;;;;;33.57;19.37;;;;;;;;;;5021891;28;20595;-74
2020/12/09 02:03:46;;;;;;;36.03;20.37;;;;;;;;;;5010614;28;20548;-74
2020/12/09 02:06:52;;;;;;;36.20;19.43;;;;;;;;;;5033902;28;20623;-74
2020/12/09 02:10:00;;;;;;;35.33;19.50;;;;;;;;;;5033907;28;20607;-74
2020/12/09 02:13:04;;;;;;;32.90;18.97;;;;;;;;;;5033914;28;20548;-74
2020/12/09 02:16:09;;;;;;;36.40;19.97;;;;;;;;;;5033699;28;21202;-74
2020/12/09 02:19:13;;;;;;;34.67;19.73;;;;;;;;;;5021606;28;20603;-74
2020/12/09 02:22:18;;;;;;;34.47;19.07;;;;;;;;;;5033765;28;21096;-75
2020/12/09 02:25:22;;;;;;;34.43;17.90;;;;;;;;;;5033582;28;20552;-74
2020/12/09 02:28:26;;;;;;;35.50;19.70;;;;;;;;;;5033644;28;20535;-74
2020/12/09 02:31:30;;;;;;;34.90;18.47;;;;;;;;;;5033337;28;21176;-75
2020/12/09 02:34:34;;;;;;;36.00;18.83;;;;;;;;;;5010187;28;20540;-74
2020/12/09 02:37:38;;;;;;;32.93;18.70;;;;;;;;;;5033229;28;20632;-74
2020/12/09 02:40:43;;;;;;;36.43;18.80;;;;;;;;;;5021132;28;20608;-74
2020/12/09 02:43:47;;;;;;;30.60;18.30;;;;;;;;;;5021529;28;20561;-74
2020/12/09 02:46:51;;;;;;;36.57;19.30;;;;;;;;;;5020937;28;20635;-74
2020/12/09 02:49:55;;;;;;;33.70;19.10;;;;;;;;;;5021010;28;20602;-74
2020/12/09 02:52:59;;;;;;;33.03;18.77;;;;;;;;;;5033063;28;21179;-74
2020/12/09 02:56:03;;;;;;;31.07;17.70;;;;;;;;;;5032975;28;20622;-74
2020/12/09 02:59:07;;;;;;;35.47;18.57;;;;;;;;;;5021032;28;20610;-74
2020/12/09 03:02:11;;;;;;;32.07;17.97;;;;;;;;;;5039097;28;20559;-74
2020/12/09 03:05:15;;;;;;;30.77;17.67;;;;;;;;;;5039513;28;20540;-74
2020/12/09 03:08:19;;;;;;;29.47;17.17;;;;;;;;;;5039799;28;20539;-74
2020/12/09 03:11:24;;;;;;;33.77;18.40;;;;;;;;;;5039733;28;20552;-74
2020/12/09 03:14:28;;;;;;;30.33;16.80;;;;;;;;;;5016233;28;20883;-74
2020/12/09 03:17:32;;;;;;;29.70;17.27;;;;;;;;;;5039407;28;20631;-74
2020/12/09 03:20:36;;;;;;;31.30;16.90;;;;;;;;;;5027435;28;20587;-74
2020/12/09 03:23:40;;;;;;;31.10;17.27;;;;;;;;;;5039606;28;20544;-74
2020/12/09 03:26:44;;;;;;;35.83;18.13;;;;;;;;;;5015815;28;21210;-74
2020/12/09 03:29:48;;;;;;;34.83;18.47;;;;;;;;;;5039571;28;20536;-74
2020/12/09 03:32:52;;;;;;;30.70;17.30;;;;;;;;;;5027086;28;20552;-74
2020/12/09 03:35:57;;;;;;;30.57;17.90;;;;;;;;;;5039412;28;21203;-74
2020/12/09 03:39:02;;;;;;;30.73;16.47;;;;;;;;;;5039497;28;20543;-75
2020/12/09 03:42:06;;;;;;;32.13;17.33;;;;;;;;;;5015726;28;20579;-75
2020/12/09 03:45:11;;;;;;;32.30;17.17;;;;;;;;;;5027164;28;20546;-75
2020/12/09 03:48:15;;;;;;;33.90;17.03;;;;;;;;;;5039188;28;20880;-75
2020/12/09 03:51:19;;;;;;;36.33;18.37;;;;;;;;;;5039109;28;20536;-75
2020/12/09 03:54:24;;;;;;;32.23;17.40;;;;;;;;;;5027117;28;20543;-74
2020/12/09 03:57:28;;;;;;;30.37;17.30;;;;;;;;;;5039032;28;20618;-75
2020/12/09 04:00:32;;;;;;;30.67;16.33;;;;;;;;;;5038924;28;21213;-75
2020/12/09 04:03:36;;;;;;;35.27;17.87;;;;;;;;;;5026740;28;20614;-74
2020/12/09 04:06:40;;;;;;;32.67;17.07;;;;;;;;;;5038874;28;20630;-73
2020/12/09 04:09:44;;;;;;;31.33;16.90;;;;;;;;;;5026721;28;20595;-74
2020/12/09 04:12:49;;;;;;;32.93;16.57;;;;;;;;;;5036787;28;21077;-74
2020/12/09 04:15:53;;;;;;;37.07;18.17;;;;;;;;;;5023759;28;20633;-75
2020/12/09 04:18:57;;;;;;;33.33;17.87;;;;;;;;;;5036027;28;21098;-74
2020/12/09 04:22:01;;;;;;;37.23;19.03;;;;;;;;;;5012505;28;21082;-75
2020/12/09 04:25:05;;;;;;;33.93;18.37;;;;;;;;;;5023412;28;20946;-74
2020/12/09 04:28:09;;;;;;;36.67;18.33;;;;;;;;;;5035549;28;20594;-74
2020/12/09 04:31:14;;;;;;;37.77;18.90;;;;;;;;;;5023556;28;21105;-74
2020/12/09 04:34:19;;;;;;;33.73;17.90;;;;;;;;;;5023553;28;20547;-74
2020/12/09 04:37:27;;;;;;;32.83;17.93;;;;;;;;;;5035615;28;20618;-75
2020/12/09 04:40:31;;;;;;;31.67;17.77;;;;;;;;;;5023349;28;21174;-74
2020/12/09 04:43:35;;;;;;;33.77;18.37;;;;;;;;;;4989456;28;20592;-73
2020/12/09 04:46:51;;;;;;;36.47;17.80;;;;;;;;;;4995683;23;20659;-75
2020/12/09 04:50:05;;;;;;;33.20;17.73;;;;;;;;;;4984567;28;20636;-74
2020/12/09 04:53:27;;;;;;;36.90;18.40;;;;;;;;;;5014013;28;20577;-75
2020/12/09 04:56:37;;;;;;;32.80;17.27;;;;;;;;;;5013633;28;21012;-75
2020/12/09 04:59:42;;;;;;;31.83;17.47;;;;;;;;;;5014875;28;20541;-75
2020/12/09 05:02:54;;;;;;;33.83;17.83;;;;;;;;;;5000395;28;20605;-74
2020/12/09 05:05:58;;;;;;;38.40;17.83;;;;;;;;;;4995679;28;20649;-74
2020/12/09 05:09:02;;;;;;;36.03;18.77;;;;;;;;;;4997897;28;21153;-75
2020/12/09 05:12:07;;;;;;;36.73;18.97;;;;;;;;;;4986319;28;20590;-75
2020/12/09 05:15:16;;;;;;;34.27;19.33;;;;;;;;;;4999696;28;20585;-75
2020/12/09 05:18:40;;;;;;;37.57;19.33;;;;;;;;;;5014428;28;20587;-75
2020/12/09 05:21:51;;;;;;;40.23;20.47;;;;;;;;;;5003357;28;20633;-75
2020/12/09 05:25:01;;;;;;;37.50;19.37;;;;;;;;;;4982288;28;20558;-76
2020/12/09 05:28:08;;;;;;;38.23;19.33;;;;;;;;;;4983944;28;20546;-75
2020/12/09 05:31:23;;;;;;;40.40;19.77;;;;;;;;;;4995793;28;20558;-75
2020/12/09 05:34:28;;;;;;;38.43;18.77;;;;;;;;;;4983356;28;20593;-75
2020/12/09 05:37:33;;;;;;;37.83;19.83;;;;;;;;;;4983521;28;20645;-75
2020/12/09 05:40:39;;;;;;;37.47;20.03;;;;;;;;;;4972085;28;20605;-75
2020/12/09 05:43:44;;;;;;;37.53;19.00;;;;;;;;;;4995369;28;20538;-75
2020/12/09 05:47:06;;;;;;;37.10;20.13;;;;;;;;;;4995117;28;20961;-75
2020/12/09 05:50:10;;;;;;;44.20;21.20;;;;;;;;;;4995466;28;20908;-75
2020/12/09 05:53:20;;;;;;;42.30;20.57;;;;;;;;;;4972551;28;20541;-75
2020/12/09 05:56:27;;;;;;;37.37;19.57;;;;;;;;;;4994992;28;20624;-75
2020/12/09 05:59:43;;;;;;;46.80;21.50;;;;;;;;;;4994974;28;20605;-75
2020/12/09 06:02:47;;;;;;;43.40;20.37;;;;;;;;;;4982819;28;20590;-75
2020/12/09 06:06:07;;;;;;;44.00;20.73;;;;;;;;;;4983125;28;21222;-75
2020/12/09 06:09:11;;;;;;;45.37;22.10;;;;;;;;;;4995022;28;20550;-75
2020/12/09 06:12:15;;;;;;;42.87;20.90;;;;;;;;;;4983045;28;21095;-75
2020/12/09 06:15:22;;;;;;;41.77;20.87;;;;;;;;;;4972213;28;20533;-75
2020/12/09 06:18:29;;;;;;;41.07;21.17;;;;;;;;;;4994914;28;20545;-75
2020/12/09 06:21:33;;;;;;;39.10;19.93;;;;;;;;;;4983099;28;20998;-75
2020/12/09 06:24:37;;;;;;;46.97;20.13;;;;;;;;;;4982943;28;20601;-75
2020/12/09 06:27:41;;;;;;;40.87;20.83;;;;;;;;;;4994405;28;21192;-75
2020/12/09 06:30:46;;;;;;;35.60;19.00;;;;;;;;;;4994903;28;20542;-75
2020/12/09 06:33:53;;;;;;;42.10;20.83;;;;;;;;;;4971908;28;20542;-75
2020/12/09 06:37:11;;;;;;;40.17;19.43;;;;;;;;;;4994074;28;20621;-75
2020/12/09 06:40:15;;;;;;;39.87;19.30;;;;;;;;;;4994446;28;20542;-75
2020/12/09 06:43:20;;;;;;;42.57;23.03;;;;;;;;;;4983047;28;20538;-75
2020/12/09 06:46:40;;;;;;;47.43;23.17;;;;;;;;;;4994629;28;20972;-75
2020/12/09 06:49:45;;;;;;;35.67;19.03;;;;;;;;;;4995161;28;20563;-75
2020/12/09 06:52:49;;;;;;;39.43;19.77;;;;;;;;;;4983778;28;20542;-74
2020/12/09 06:56:16;;;;;;;39.83;19.30;;;;;;;;;;4983158;28;20628;-74
2020/12/09 06:59:25;;;;;;;38.80;19.90;;;;;;;;;;4972153;28;20542;-74
2020/12/09 07:02:30;;;;;;;38.60;19.73;;;;;;;;;;4982825;28;20657;-74
2020/12/09 07:05:34;;;;;;;41.23;18.90;;;;;;;;;;4983224;28;20545;-74
2020/12/09 07:08:44;;;;;;;39.63;20.47;;;;;;;;;;4994807;28;20545;-74
2020/12/09 07:11:52;;;;;;;37.07;20.03;;;;;;;;;;4971947;28;20542;-74
2020/12/09 07:14:57;;;;;;;37.60;19.33;;;;;;;;;;4995260;28;20907;-74
2020/12/09 07:18:02;;;;;;;35.37;19.03;;;;;;;;;;4995031;28;20554;-74
2020/12/09 07:21:07;;;;;;;37.63;19.40;;;;;;;;;;4994615;28;20645;-73
2020/12/09 07:24:11;;;;;;;37.07;19.07;;;;;;;;;;4983292;28;20945;-74
2020/12/09 07:27:15;;;;;;;40.60;20.50;;;;;;;;;;4982769;28;20620;-74
2020/12/09 07:30:20;;;;;;;37.87;19.37;;;;;;;;;;4974315;28;20550;-74
2020/12/09 07:33:25;;;;;;;36.47;19.17;;;;;;;;;;4995148;28;20549;-74
2020/12/09 07:36:29;;;;;;;41.83;23.97;;;;;;;;;;4983299;28;20628;-74
2020/12/09 07:39:33;;;;;;;43.03;21.13;;;;;;;;;;4995094;28;20601;-74
2020/12/09 07:42:37;;;;;;;39.43;19.57;;;;;;;;;;4995030;28;20601;-73
2020/12/09 07:45:43;;;;;;;42.67;20.23;;;;;;;;;;4995106;28;20549;-73
2020/12/09 07:48:48;;;;;;;42.30;20.20;;;;;;;;;;4998259;28;20616;-73
2020/12/09 07:51:53;;;;;;;40.80;19.63;;;;;;;;;;4998483;28;20589;-73
2020/12/09 07:55:00;;;;;;;37.60;18.40;;;;;;;;;;4998956;28;21095;-73
2020/12/09 07:58:05;;;;;;;40.10;19.77;;;;;;;;;;4986562;28;20546;-73
2020/12/09 08:01:25;;;;;;;38.80;19.00;;;;;;;;;;4986392;28;20614;-73
2020/12/09 08:04:29;;;;;;;41.67;19.37;;;;;;;;;;4998397;28;20554;-73
2020/12/09 08:07:34;;;;;;;42.27;19.23;;;;;;;;;;4986226;28;20625;-73
2020/12/09 08:10:43;;;;;;;37.93;19.00;;;;;;;;;;4998340;28;20553;-73
2020/12/09 08:13:47;;;;;;;41.53;20.60;;;;;;;;;;4997793;28;21100;-73
2020/12/09 08:16:52;;;;;;;41.60;20.03;;;;;;;;;;4985967;28;20981;-73
2020/12/09 08:20:06;;;;;;;40.67;20.87;;;;;;;;;;4975019;28;20931;-73
2020/12/09 08:23:10;;;;;;;34.10;18.43;;;;;;;;;;4997953;28;20866;-73
2020/12/09 08:26:34;;;;;;;40.13;19.37;;;;;;;;;;4973737;28;20620;-73
2020/12/09 08:29:39;;;;;;;42.03;20.80;;;;;;;;;;4974258;28;20538;-73
2020/12/09 08:33:02;;;;;;;42.83;21.60;;;;;;;;;;4984465;28;20545;-73
2020/12/09 08:36:08;;;;;;;41.10;19.10;;;;;;;;;;4974186;28;20625;-73
2020/12/09 08:39:12;;;;;;;41.17;18.73;;;;;;;;;;4973757;28;20538;-73
2020/12/09 08:42:19;;;;;;;38.40;19.20;;;;;;;;;;4983945;28;20659;-73
2020/12/09 08:45:24;;;;;;;35.30;17.67;;;;;;;;;;4984220;28;20601;-73
2020/12/09 08:48:29;;;;;;;38.73;18.77;;;;;;;;;;4995975;28;20625;-73
2020/12/09 08:51:34;;;;;;;33.00;17.43;;;;;;;;;;4984333;28;20542;-73
2020/12/09 08:54:37;;;;;;;36.97;17.70;;;;;;;;;;4996028;28;20546;-73
2020/12/09 08:57:42;;;;;;;36.07;18.60;;;;;;;;;;4996629;28;20620;-73
2020/12/09 09:00:46;;;;;;;34.90;18.57;;;;;;;;;;4996142;28;20601;-73
2020/12/09 09:03:56;;;;;;;35.80;20.23;;;;;;;;;;4996010;28;20609;-73
2020/12/09 09:07:03;;;;;;;35.73;22.00;;;;;;;;;;4995640;28;20624;-73
2020/12/09 09:10:07;;;;;;;37.10;22.37;;;;;;;;;;4995888;28;20629;-73
2020/12/09 09:13:12;;;;;;;34.93;20.93;;;;;;;;;;4972412;28;20597;-74
2020/12/09 09:16:16;;;;;;;33.37;19.27;;;;;;;;;;4995475;28;20629;-74
2020/12/09 09:19:20;;;;;;;31.70;18.57;;;;;;;;;;4995793;28;20549;-74
2020/12/09 09:22:25;;;;;;;38.70;20.50;;;;;;;;;;4972427;28;20601;-74
2020/12/09 09:25:29;;;;;;;41.63;24.77;;;;;;;;;;4995717;28;20546;-74
2020/12/09 09:28:33;;;;;;;40.03;24.17;;;;;;;;;;4995418;28;20550;-75
2020/12/09 09:31:38;;;;;;;69.03;36.70;;;;;;;;;;4995075;28;20597;-74
2020/12/09 09:34:41;;;;;;;70.30;37.33;;;;;;;;;;4983108;28;20922;-74
2020/12/09 09:37:46;;;;;;;66.23;32.97;;;;;;;;;;4994839;28;20624;-75
2020/12/09 09:40:50;;;;;;;36.00;19.40;;;;;;;;;;4994862;28;20561;-74
2020/12/09 09:43:54;;;;;;;37.97;22.43;;;;;;;;;;4983119;28;20526;-75
2020/12/09 09:46:59;;;;;;;40.90;23.00;;;;;;;;;;4982977;28;20629;-75
2020/12/09 09:50:05;;;;;;;40.70;22.57;;;;;;;;;;4983312;28;20558;-75
2020/12/09 09:53:09;;;;;;;65.93;34.63;;;;;;;;;;4994941;28;20542;-76
2020/12/09 09:56:13;;;;;;;93.77;48.50;;;;;;;;;;4994548;28;20965;-77
2020/12/09 09:59:18;;;;;;;63.13;36.90;;;;;;;;;;4984420;28;20539;-77
2020/12/09 10:02:22;;;;;;;43.50;26.27;;;;;;;;;;4986542;28;20601;-78
2020/12/09 10:05:26;;;;;;;56.87;33.13;;;;;;;;;;4989606;28;20530;-78
2020/12/09 10:08:30;;;;;;;52.90;36.07;;;;;;;;;;4980789;28;20600;-78
2020/12/09 10:11:36;;;;;;;36.80;22.47;;;;;;;;;;4993917;28;20605;-78
2020/12/09 10:14:40;;;;;;;35.00;19.53;;;;;;;;;;4985962;28;20597;-78
2020/12/09 10:17:45;;;;;;;28.87;16.33;;;;;;;;;;4988495;28;20625;-78
2020/12/09 10:20:49;;;;;;;26.33;16.23;;;;;;;;;;5000712;28;20546;-78
2020/12/09 10:23:54;;;;;;;24.43;14.17;;;;;;;;;;5001701;28;20542;-79
2020/12/09 10:27:01;;;;;;;27.40;15.40;;;;;;;;;;5002956;28;20633;-79
2020/12/09 10:30:06;;;;;;;38.80;19.93;;;;;;;;;;4992496;28;20522;-79
2020/12/09 10:33:11;;;;;;;34.67;19.10;;;;;;;;;;4992528;28;20522;-79
2020/12/09 10:36:21;;;;;;;30.03;18.17;;;;;;;;;;4992048;28;20613;-79
2020/12/09 10:39:26;;;;;;;32.20;19.93;;;;;;;;;;4992339;28;20585;-79
2020/12/09 10:42:30;;;;;;;26.10;17.90;;;;;;;;;;4992190;28;20605;-79
2020/12/09 10:45:34;;;;;;;26.90;15.70;;;;;;;;;;5001286;28;20546;-79
2020/12/09 10:48:39;;;;;;;24.07;15.63;;;;;;;;;;5011626;23;20683;-75
2020/12/09 10:51:51;;;;;;;32.40;18.13;;;;;;;;;;5021223;28;20578;-75
2020/12/09 10:55:00;;;;;;;25.37;15.13;;;;;;;;;;5033148;28;20560;-75
2020/12/09 10:58:07;;;;;;;31.40;16.27;;;;;;;;;;5013217;28;20599;-74
2020/12/09 11:01:12;;;;;;;28.17;17.97;;;;;;;;;;5013211;28;20557;-75
2020/12/09 11:04:16;;;;;;;24.43;13.20;;;;;;;;;;5013425;28;20530;-75
2020/12/09 11:07:22;;;;;;;23.50;14.27;;;;;;;;;;5012373;28;20624;-75
2020/12/09 11:10:26;;;;;;;21.67;14.10;;;;;;;;;;5001349;28;20549;-75
2020/12/09 11:13:30;;;;;;;31.53;18.80;;;;;;;;;;5001333;28;20612;-75
2020/12/09 11:16:34;;;;;;;27.00;16.53;;;;;;;;;;5012717;28;20616;-76
2020/12/09 11:19:38;;;;;;;23.63;14.83;;;;;;;;;;5013473;28;20541;-77
2020/12/09 11:22:42;;;;;;;34.17;19.37;;;;;;;;;;5004006;28;20639;-78
2020/12/09 11:25:46;;;;;;;44.47;25.53;;;;;;;;;;5006416;28;20607;-78
2020/12/09 11:28:51;;;;;;;40.37;22.73;;;;;;;;;;5017505;28;20545;-78
2020/12/09 11:31:55;;;;;;;24.87;15.90;;;;;;;;;;5005110;28;20599;-77
2020/12/09 11:34:59;;;;;;;23.17;14.43;;;;;;;;;;4993879;28;20608;-77
2020/12/09 11:38:03;;;;;;;23.80;14.87;;;;;;;;;;5016311;28;20599;-76
2020/12/09 11:41:07;;;;;;;22.80;12.77;;;;;;;;;;5015960;28;20611;-76
2020/12/09 11:44:12;;;;;;;23.57;14.33;;;;;;;;;;5016984;28;20604;-75
2020/12/09 11:47:16;;;;;;;23.80;14.07;;;;;;;;;;5015842;28;20627;-75
2020/12/09 11:50:20;;;;;;;26.43;13.87;;;;;;;;;;5005043;28;20552;-75
2020/12/09 11:53:24;;;;;;;20.53;12.47;;;;;;;;;;5005015;28;20541;-75
2020/12/09 11:56:28;;;;;;;28.03;14.10;;;;;;;;;;5016773;28;20626;-75
2020/12/09 11:59:32;;;;;;;19.33;11.43;;;;;;;;;;5016748;28;20544;-75
2020/12/09 12:02:36;;;;;;;23.10;12.97;;;;;;;;;;5004265;28;20604;-75
2020/12/09 12:05:42;;;;;;;22.47;13.00;;;;;;;;;;5016321;28;20540;-75
2020/12/09 12:08:47;;;;;;;19.70;11.97;;;;;;;;;;5016625;28;20549;-75
2020/12/09 12:11:51;;;;;;;22.33;13.00;;;;;;;;;;5016530;28;20541;-75
2020/12/09 12:14:55;;;;;;;17.70;10.90;;;;;;;;;;5004442;28;20537;-75
2020/12/09 12:17:59;;;;;;;15.57;9.53;;;;;;;;;;5015267;28;20595;-75
2020/12/09 12:21:03;;;;;;;18.33;10.03;;;;;;;;;;5003997;28;21150;-75
2020/12/09 12:24:08;;;;;;;18.67;10.23;;;;;;;;;;5016481;28;20596;-75
2020/12/09 12:27:11;;;;;;;15.70;9.47;;;;;;;;;;5015045;28;20999;-75
2020/12/09 12:30:16;;;;;;;16.07;10.00;;;;;;;;;;5015876;28;20604;-75
2020/12/09 12:33:20;;;;;;;18.30;10.80;;;;;;;;;;5015183;28;20533;-75
2020/12/09 12:36:24;;;;;;;14.17;9.50;;;;;;;;;;5015916;28;20624;-75
2020/12/09 12:39:28;;;;;;;16.07;10.23;;;;;;;;;;5015249;28;20893;-75
2020/12/09 12:42:32;;;;;;;18.00;10.57;;;;;;;;;;5003610;28;20680;-75
2020/12/09 12:45:37;;;;;;;16.30;10.93;;;;;;;;;;5003559;28;20592;-75
2020/12/09 12:48:41;;;;;;;14.23;9.97;;;;;;;;;;5015833;28;20947;-75
2020/12/09 12:51:45;;;;;;;15.83;10.07;;;;;;;;;;5015818;28;20544;-75
2020/12/09 12:54:49;;;;;;;17.13;11.00;;;;;;;;;;5003661;28;20548;-75
2020/12/09 12:57:53;;;;;;;16.10;9.77;;;;;;;;;;5003505;28;20620;-74
2020/12/09 13:00:57;;;;;;;18.60;12.63;;;;;;;;;;5003564;28;20540;-74
2020/12/09 13:04:03;;;;;;;18.57;13.50;;;;;;;;;;5014720;28;20592;-75
2020/12/09 13:07:07;;;;;;;16.27;12.33;;;;;;;;;;5015442;28;20624;-75
2020/12/09 13:10:12;;;;;;;31.80;28.47;;;;;;;;;;5003178;28;20568;-74
2020/12/09 13:13:17;;;;;;;14.33;11.73;;;;;;;;;;5015411;28;20536;-74
2020/12/09 13:16:21;;;;;;;14.30;10.97;;;;;;;;;;4991981;28;20628;-74
2020/12/09 13:19:25;;;;;;;15.17;11.93;;;;;;;;;;5014918;28;20596;-75
2020/12/09 13:22:29;;;;;;;14.37;9.97;;;;;;;;;;5014339;28;20939;-75
2020/12/09 13:25:33;;;;;;;13.70;9.67;;;;;;;;;;5014250;28;20549;-75
2020/12/09 13:28:37;;;;;;;12.07;8.87;;;;;;;;;;4991862;28;20541;-75
2020/12/09 13:31:41;;;;;;;16.80;12.87;;;;;;;;;;5014715;28;20596;-75
2020/12/09 13:34:46;;;;;;;44.87;32.30;;;;;;;;;;4991715;28;20599;-74
2020/12/09 13:37:50;;;;;;;32.57;22.00;;;;;;;;;;5014606;28;20623;-75
2020/12/09 13:40:54;;;;;;;20.10;13.50;;;;;;;;;;5002473;28;20553;-74
2020/12/09 13:43:58;;;;;;;16.13;10.20;;;;;;;;;;5002676;28;20593;-75
2020/12/09 13:47:02;;;;;;;28.97;15.00;;;;;;;;;;5001981;28;20620;-75
2020/12/09 13:50:07;;;;;;;41.87;28.17;;;;;;;;;;5013478;28;20611;-74
2020/12/09 13:53:11;;;;;;;39.10;31.50;;;;;;;;;;5002582;28;20541;-75
2020/12/09 13:56:16;;;;;;;25.23;18.80;;;;;;;;;;5013434;28;20620;-75
2020/12/09 13:59:20;;;;;;;34.10;24.93;;;;;;;;;;4991296;28;20549;-75
2020/12/09 14:02:24;;;;;;;25.53;19.23;;;;;;;;;;5013482;28;20556;-75
2020/12/09 14:05:29;;;;;;;23.17;18.17;;;;;;;;;;5014440;28;20890;-75
2020/12/09 14:08:33;;;;;;;13.87;9.30;;;;;;;;;;5013585;28;20561;-75
2020/12/09 14:11:37;;;;;;;10.83;8.13;;;;;;;;;;4991395;28;20545;-75
2020/12/09 14:14:42;;;;;;;12.23;8.37;;;;;;;;;;5002258;28;20537;-75
2020/12/09 14:17:46;;;;;;;12.23;8.83;;;;;;;;;;5013124;28;21197;-75
2020/12/09 14:20:56;;;;;;;15.10;12.20;;;;;;;;;;5013289;28;21068;-75
2020/12/09 14:24:01;;;;;;;15.80;12.23;;;;;;;;;;5013737;28;20593;-75
2020/12/09 14:27:09;;;;;;;16.13;11.27;;;;;;;;;;5002076;28;20628;-75
2020/12/09 14:30:13;;;;;;;33.07;20.30;;;;;;;;;;5014037;28;20541;-75
2020/12/09 14:33:17;;;;;;;15.80;11.60;;;;;;;;;;5013927;28;20544;-75
2020/12/09 14:36:21;;;;;;;18.47;12.17;;;;;;;;;;5013976;28;20955;-75
2020/12/09 14:39:26;;;;;;;13.90;9.60;;;;;;;;;;4990721;28;20557;-76
2020/12/09 14:42:30;;;;;;;19.33;11.60;;;;;;;;;;5001529;28;21091;-76
2020/12/09 14:45:34;;;;;;;13.53;8.70;;;;;;;;;;5013178;28;20542;-75
2020/12/09 14:48:38;;;;;;;11.77;7.73;;;;;;;;;;5001021;28;20608;-75
2020/12/09 14:51:43;;;;;;;14.07;8.53;;;;;;;;;;5001585;28;20548;-75
2020/12/09 14:54:47;;;;;;;12.07;8.07;;;;;;;;;;5001368;28;20545;-74
2020/12/09 14:57:51;;;;;;;11.53;7.87;;;;;;;;;;5000769;28;21205;-74
2020/12/09 15:00:55;;;;;;;16.17;10.70;;;;;;;;;;5013182;28;20600;-75
2020/12/09 15:03:59;;;;;;;15.40;11.17;;;;;;;;;;5000543;28;20632;-75
2020/12/09 15:07:04;;;;;;;24.83;19.43;;;;;;;;;;4992795;28;20653;-75
2020/12/09 15:10:08;;;;;;;13.37;9.63;;;;;;;;;;4994288;28;20581;-75
2020/12/09 15:13:12;;;;;;;12.30;8.47;;;;;;;;;;4984567;28;21142;-75
2020/12/09 15:16:18;;;;;;;12.00;8.37;;;;;;;;;;4986527;28;20653;-74
2020/12/09 15:19:23;;;;;;;14.97;11.20;;;;;;;;;;4981729;28;20546;-74
2020/12/09 15:22:27;;;;;;;15.43;11.27;;;;;;;;;;4998082;28;21131;-75
2020/12/09 15:25:31;;;;;;;10.97;7.83;;;;;;;;;;4993640;28;20539;-74
2020/12/09 15:28:36;;;;;;;13.63;7.40;;;;;;;;;;4993722;28;20593;-74
2020/12/09 15:31:40;;;;;;;13.37;9.50;;;;;;;;;;5003095;28;20597;-75
2020/12/09 15:34:44;;;;;;;10.40;6.93;;;;;;;;;;4998763;28;21150;-75
2020/12/09 15:37:49;;;;;;;13.33;7.50;;;;;;;;;;4997844;28;20629;-74
2020/12/09 15:40:53;;;;;;;10.87;7.33;;;;;;;;;;4988441;28;20623;-74
2020/12/09 15:43:57;;;;;;;15.97;9.00;;;;;;;;;;5011375;28;20636;-74
2020/12/09 15:47:01;;;;;;;20.87;11.17;;;;;;;;;;4989325;28;20644;-74
2020/12/09 15:50:11;;;;;;;13.40;8.33;;;;;;;;;;4981238;28;20617;-74
2020/12/09 15:53:15;;;;;;;13.33;8.47;;;;;;;;;;4963877;28;20662;-74
2020/12/09 15:56:19;;;;;;;24.43;12.73;;;;;;;;;;4991165;28;20651;-74
2020/12/09 15:59:23;;;;;;;15.20;9.07;;;;;;;;;;5006729;28;20965;-74
2020/12/09 16:02:28;;;;;;;15.70;11.63;;;;;;;;;;5000566;28;20599;-74
2020/12/09 16:05:32;;;;;;;11.67;8.30;;;;;;;;;;5000727;28;20643;-75
2020/12/09 16:08:36;;;;;;;12.73;9.50;;;;;;;;;;4994184;28;20593;-75
2020/12/09 16:11:40;;;;;;;27.67;21.97;;;;;;;;;;4994191;28;20588;-75
2020/12/09 16:14:45;;;;;;;19.10;14.73;;;;;;;;;;5017472;28;20540;-75
2020/12/09 16:17:49;;;;;;;22.30;12.67;;;;;;;;;;4995716;28;21012;-75
2020/12/09 16:20:53;;;;;;;13.53;8.90;;;;;;;;;;4984869;28;20605;-74
2020/12/09 16:23:57;;;;;;;13.37;9.03;;;;;;;;;;5006281;28;20635;-74
2020/12/09 16:27:02;;;;;;;13.03;8.53;;;;;;;;;;4979572;28;20647;-75
2020/12/09 16:30:07;;;;;;;11.43;8.20;;;;;;;;;;4974168;28;21150;-75
2020/12/09 16:33:13;;;;;;;14.93;9.27;;;;;;;;;;4985044;28;20874;-74
2020/12/09 16:36:17;;;;;;;12.57;8.10;;;;;;;;;;4997638;28;20640;-76
2020/12/09 16:39:21;;;;;;;22.60;14.70;;;;;;;;;;4984316;28;21155;-75
2020/12/09 16:42:31;;;;;;;26.83;19.47;;;;;;;;;;5001316;28;20591;-76
2020/12/09 16:45:35;;;;;;;21.90;19.40;;;;;;;;;;4988086;28;21517;-75
2020/12/09 16:48:40;;;;;;;14.50;11.83;;;;;;;;;;5003495;28;20636;-75
2020/12/09 16:51:44;;;;;;;13.17;9.93;;;;;;;;;;4995280;28;20538;-75
2020/12/09 16:54:48;;;;;;;11.53;8.93;;;;;;;;;;4996042;28;20542;-75
2020/12/09 16:57:53;;;;;;;22.53;17.53;;;;;;;;;;4985225;28;20644;-75
2020/12/09 17:00:57;;;;;;;20.50;15.23;;;;;;;;;;4984086;28;20538;-75
2020/12/09 17:04:02;;;;;;;20.47;17.47;;;;;;;;;;4996102;28;20598;-76
2020/12/09 17:07:07;;;;;;;16.80;12.13;;;;;;;;;;4995868;28;20617;-75
2020/12/09 17:10:11;;;;;;;13.70;9.73;;;;;;;;;;4979147;28;20588;-76
2020/12/09 17:13:15;;;;;;;12.93;9.13;;;;;;;;;;4998441;28;21205;-75
2020/12/09 17:16:19;;;;;;;9.20;7.20;;;;;;;;;;5003034;28;20620;-76
2020/12/09 17:19:24;;;;;;;10.63;7.73;;;;;;;;;;5015156;28;20541;-76
2020/12/09 17:22:28;;;;;;;14.20;8.67;;;;;;;;;;5015016;28;20612;-75
2020/12/09 17:25:32;;;;;;;19.47;10.77;;;;;;;;;;4991383;28;20648;-77
2020/12/09 17:28:37;;;;;;;12.60;9.33;;;;;;;;;;4984214;28;20945;-75
2020/12/09 17:31:42;;;;;;;17.07;12.60;;;;;;;;;;4983010;28;20593;-75
2020/12/09 17:34:46;;;;;;;15.07;10.77;;;;;;;;;;4995008;28;20598;-75
2020/12/09 17:37:51;;;;;;;12.37;9.43;;;;;;;;;;4996661;28;20647;-76
2020/12/09 17:40:55;;;;;;;15.30;10.43;;;;;;;;;;4996174;28;21127;-76
2020/12/09 17:43:59;;;;;;;17.53;9.30;;;;;;;;;;4984480;28;20577;-76
2020/12/09 17:47:03;;;;;;;14.80;10.03;;;;;;;;;;4993384;28;20632;-76
2020/12/09 17:50:07;;;;;;;12.63;8.53;;;;;;;;;;5000339;28;20608;-78
2020/12/09 17:53:12;;;;;;;9.70;7.03;;;;;;;;;;4985484;28;21060;-81
2020/12/09 17:56:17;;;;;;;9.93;7.80;;;;;;;;;;4977496;28;20620;-81
2020/12/09 17:59:21;;;;;;;21.80;14.07;;;;;;;;;;4984055;28;20601;-75
2020/12/09 18:02:25;;;;;;;23.37;14.47;;;;;;;;;;4999826;28;20617;-75